sensor_id;sensor_type;location;lat;lon;timestamp;P1;durP1;ratioP1;P2;durP2;ratioP2
65234;SDS011;51820;48.374;10.930;2024-01-11T00:01:34;44.47;;;13.43;;
65234;SDS011;51820;48.374;10.930;2024-01-11T00:04:01;47.30;;;14.25;;
65234;SDS011;51820;48.374;10.930;2024-01-11T00:06:30;43.17;;;13.25;;
65234;SDS011;51820;48.374;10.930;2024-01-11T00:08:58;41.95;;;13.50;;
65234;SDS011;51820;48.374;10.930;2024-01-11T00:11:27;49.37;;;12.33;;
65234;SDS011;51820;48.374;10.930;2024-01-11T00:13:57;39.40;;;12.93;;
65234;SDS011;51820;48.374;10.930;2024-01-11T00:16:25;41.38;;;14.45;;
65234;SDS011;51820;48.374;10.930;2024-01-11T00:18:53;43.95;;;14.07;;
65234;SDS011;51820;48.374;10.930;2024-01-11T00:21:22;38.90;;;13.18;;
65234;SDS011;51820;48.374;10.930;2024-01-11T00:23:51;43.63;;;14.40;;
65234;SDS011;51820;48.374;10.930;2024-01-11T00:26:19;46.03;;;13.88;;
65234;SDS011;51820;48.374;10.930;2024-01-11T00:28:48;41.95;;;12.32;;
65234;SDS011;51820;48.374;10.930;2024-01-11T00:31:18;47.28;;;14.07;;
65234;SDS011;51820;48.374;10.930;2024-01-11T00:33:46;42.83;;;14.07;;
65234;SDS011;51820;48.374;10.930;2024-01-11T00:36:21;43.20;;;14.67;;
65234;SDS011;51820;48.374;10.930;2024-01-11T00:39:04;45.58;;;14.30;;
65234;SDS011;51820;48.374;10.930;2024-01-11T00:41:33;44.30;;;13.60;;
65234;SDS011;51820;48.374;10.930;2024-01-11T00:44:01;40.95;;;13.50;;
65234;SDS011;51820;48.374;10.930;2024-01-11T00:46:31;47.60;;;14.60;;
65234;SDS011;51820;48.374;10.930;2024-01-11T00:49:00;44.20;;;14.47;;
65234;SDS011;51820;48.374;10.930;2024-01-11T00:51:28;39.75;;;13.57;;
65234;SDS011;51820;48.374;10.930;2024-01-11T00:53:57;43.40;;;15.15;;
65234;SDS011;51820;48.374;10.930;2024-01-11T00:56:25;45.05;;;15.63;;
65234;SDS011;51820;48.374;10.930;2024-01-11T00:58:54;51.03;;;15.52;;
65234;SDS011;51820;48.374;10.930;2024-01-11T01:01:23;42.73;;;14.63;;
65234;SDS011;51820;48.374;10.930;2024-01-11T01:03:53;44.85;;;14.68;;
65234;SDS011;51820;48.374;10.930;2024-01-11T01:06:21;44.03;;;15.15;;
65234;SDS011;51820;48.374;10.930;2024-01-11T01:08:50;47.30;;;14.95;;
65234;SDS011;51820;48.374;10.930;2024-01-11T01:11:18;47.63;;;16.52;;
65234;SDS011;51820;48.374;10.930;2024-01-11T01:13:47;51.83;;;16.20;;
65234;SDS011;51820;48.374;10.930;2024-01-11T01:16:15;49.83;;;15.57;;
65234;SDS011;51820;48.374;10.930;2024-01-11T01:18:44;46.63;;;17.63;;
65234;SDS011;51820;48.374;10.930;2024-01-11T01:21:17;55.70;;;16.42;;
65234;SDS011;51820;48.374;10.930;2024-01-11T01:23:46;57.38;;;17.83;;
65234;SDS011;51820;48.374;10.930;2024-01-11T01:26:14;54.97;;;17.27;;
65234;SDS011;51820;48.374;10.930;2024-01-11T01:28:43;53.92;;;16.63;;
65234;SDS011;51820;48.374;10.930;2024-01-11T01:31:11;55.47;;;16.63;;
65234;SDS011;51820;48.374;10.930;2024-01-11T01:33:40;49.63;;;16.42;;
65234;SDS011;51820;48.374;10.930;2024-01-11T01:36:09;50.00;;;18.65;;
65234;SDS011;51820;48.374;10.930;2024-01-11T01:38:39;51.40;;;16.03;;
65234;SDS011;51820;48.374;10.930;2024-01-11T01:41:09;54.95;;;18.77;;
65234;SDS011;51820;48.374;10.930;2024-01-11T01:43:38;51.80;;;18.23;;
65234;SDS011;51820;48.374;10.930;2024-01-11T01:46:07;54.72;;;18.05;;
65234;SDS011;51820;48.374;10.930;2024-01-11T01:48:36;53.17;;;19.05;;
65234;SDS011;51820;48.374;10.930;2024-01-11T01:51:08;57.20;;;18.60;;
65234;SDS011;51820;48.374;10.930;2024-01-11T01:53:37;48.25;;;17.33;;
65234;SDS011;51820;48.374;10.930;2024-01-11T01:56:07;46.40;;;16.98;;
65234;SDS011;51820;48.374;10.930;2024-01-11T01:58:36;50.22;;;17.33;;
65234;SDS011;51820;48.374;10.930;2024-01-11T02:01:05;49.45;;;17.40;;
65234;SDS011;51820;48.374;10.930;2024-01-11T02:03:37;51.33;;;17.50;;
65234;SDS011;51820;48.374;10.930;2024-01-11T02:06:06;54.00;;;18.23;;
65234;SDS011;51820;48.374;10.930;2024-01-11T02:08:35;56.67;;;18.52;;
65234;SDS011;51820;48.374;10.930;2024-01-11T02:11:04;51.15;;;17.85;;
65234;SDS011;51820;48.374;10.930;2024-01-11T02:13:34;52.97;;;18.00;;
65234;SDS011;51820;48.374;10.930;2024-01-11T02:16:02;51.63;;;18.20;;
65234;SDS011;51820;48.374;10.930;2024-01-11T02:18:31;49.35;;;18.17;;
65234;SDS011;51820;48.374;10.930;2024-01-11T02:21:00;49.92;;;16.70;;
65234;SDS011;51820;48.374;10.930;2024-01-11T02:23:34;52.90;;;17.33;;
65234;SDS011;51820;48.374;10.930;2024-01-11T02:26:11;53.83;;;16.65;;
65234;SDS011;51820;48.374;10.930;2024-01-11T02:28:43;52.43;;;16.03;;
65234;SDS011;51820;48.374;10.930;2024-01-11T02:31:12;42.88;;;16.40;;
65234;SDS011;51820;48.374;10.930;2024-01-11T02:33:41;54.90;;;17.45;;
65234;SDS011;51820;48.374;10.930;2024-01-11T02:36:09;51.70;;;16.83;;
65234;SDS011;51820;48.374;10.930;2024-01-11T02:38:38;45.00;;;16.00;;
65234;SDS011;51820;48.374;10.930;2024-01-11T02:41:09;52.30;;;16.97;;
65234;SDS011;51820;48.374;10.930;2024-01-11T02:43:39;45.60;;;17.17;;
65234;SDS011;51820;48.374;10.930;2024-01-11T02:46:07;45.72;;;16.52;;
65234;SDS011;51820;48.374;10.930;2024-01-11T02:48:36;44.83;;;15.23;;
65234;SDS011;51820;48.374;10.930;2024-01-11T02:51:04;44.45;;;15.57;;
65234;SDS011;51820;48.374;10.930;2024-01-11T02:53:33;43.27;;;15.73;;
65234;SDS011;51820;48.374;10.930;2024-01-11T02:56:01;46.33;;;16.05;;
65234;SDS011;51820;48.374;10.930;2024-01-11T02:58:32;54.92;;;18.38;;
65234;SDS011;51820;48.374;10.930;2024-01-11T03:01:00;53.88;;;17.95;;
65234;SDS011;51820;48.374;10.930;2024-01-11T03:03:29;54.53;;;17.60;;
65234;SDS011;51820;48.374;10.930;2024-01-11T03:05:57;48.73;;;16.50;;
65234;SDS011;51820;48.374;10.930;2024-01-11T03:08:26;56.75;;;16.73;;
65234;SDS011;51820;48.374;10.930;2024-01-11T03:10:55;49.67;;;17.63;;
65234;SDS011;51820;48.374;10.930;2024-01-11T03:13:23;43.78;;;16.15;;
65234;SDS011;51820;48.374;10.930;2024-01-11T03:15:53;47.55;;;17.55;;
65234;SDS011;51820;48.374;10.930;2024-01-11T03:18:21;47.80;;;16.80;;
65234;SDS011;51820;48.374;10.930;2024-01-11T03:20:50;60.00;;;18.67;;
65234;SDS011;51820;48.374;10.930;2024-01-11T03:23:18;53.00;;;20.27;;
65234;SDS011;51820;48.374;10.930;2024-01-11T03:25:47;54.50;;;17.80;;
65234;SDS011;51820;48.374;10.930;2024-01-11T03:28:15;55.88;;;18.48;;
65234;SDS011;51820;48.374;10.930;2024-01-11T03:30:44;52.60;;;16.77;;
65234;SDS011;51820;48.374;10.930;2024-01-11T03:33:13;46.45;;;16.20;;
65234;SDS011;51820;48.374;10.930;2024-01-11T03:35:42;54.90;;;17.15;;
65234;SDS011;51820;48.374;10.930;2024-01-11T03:38:11;49.38;;;16.45;;
65234;SDS011;51820;48.374;10.930;2024-01-11T03:40:38;45.72;;;17.38;;
65234;SDS011;51820;48.374;10.930;2024-01-11T03:43:07;53.37;;;16.63;;
65234;SDS011;51820;48.374;10.930;2024-01-11T03:45:35;43.72;;;15.48;;
65234;SDS011;51820;48.374;10.930;2024-01-11T03:48:04;52.53;;;17.35;;
65234;SDS011;51820;48.374;10.930;2024-01-11T03:50:34;55.40;;;16.42;;
65234;SDS011;51820;48.374;10.930;2024-01-11T03:53:02;58.92;;;17.55;;
65234;SDS011;51820;48.374;10.930;2024-01-11T03:55:31;51.83;;;16.73;;
65234;SDS011;51820;48.374;10.930;2024-01-11T03:57:59;48.88;;;16.00;;
65234;SDS011;51820;48.374;10.930;2024-01-11T04:00:27;55.30;;;15.95;;
65234;SDS011;51820;48.374;10.930;2024-01-11T04:02:56;60.00;;;18.25;;
65234;SDS011;51820;48.374;10.930;2024-01-11T04:05:24;50.97;;;17.27;;
65234;SDS011;51820;48.374;10.930;2024-01-11T04:07:54;48.97;;;15.93;;
65234;SDS011;51820;48.374;10.930;2024-01-11T04:10:22;41.05;;;14.80;;
65234;SDS011;51820;48.374;10.930;2024-01-11T04:12:51;52.97;;;18.35;;
65234;SDS011;51820;48.374;10.930;2024-01-11T04:15:19;50.38;;;16.92;;
65234;SDS011;51820;48.374;10.930;2024-01-11T04:17:47;51.33;;;16.85;;
65234;SDS011;51820;48.374;10.930;2024-01-11T04:20:16;47.77;;;15.87;;
65234;SDS011;51820;48.374;10.930;2024-01-11T04:22:45;51.88;;;16.77;;
65234;SDS011;51820;48.374;10.930;2024-01-11T04:25:15;46.95;;;16.63;;
65234;SDS011;51820;48.374;10.930;2024-01-11T04:27:43;48.78;;;16.15;;
65234;SDS011;51820;48.374;10.930;2024-01-11T04:30:11;53.20;;;17.73;;
65234;SDS011;51820;48.374;10.930;2024-01-11T04:32:40;45.93;;;17.33;;
65234;SDS011;51820;48.374;10.930;2024-01-11T04:35:09;50.75;;;17.25;;
65234;SDS011;51820;48.374;10.930;2024-01-11T04:37:37;50.35;;;16.30;;
65234;SDS011;51820;48.374;10.930;2024-01-11T04:40:06;50.72;;;16.77;;
65234;SDS011;51820;48.374;10.930;2024-01-11T04:42:36;54.35;;;16.60;;
65234;SDS011;51820;48.374;10.930;2024-01-11T04:45:05;55.90;;;16.50;;
65234;SDS011;51820;48.374;10.930;2024-01-11T04:47:33;54.97;;;18.05;;
65234;SDS011;51820;48.374;10.930;2024-01-11T04:50:02;49.47;;;17.00;;
65234;SDS011;51820;48.374;10.930;2024-01-11T04:52:30;57.67;;;18.52;;
65234;SDS011;51820;48.374;10.930;2024-01-11T04:54:59;50.60;;;16.15;;
65234;SDS011;51820;48.374;10.930;2024-01-11T04:57:27;49.93;;;15.90;;
65234;SDS011;51820;48.374;10.930;2024-01-11T04:59:57;46.78;;;16.15;;
65234;SDS011;51820;48.374;10.930;2024-01-11T05:02:29;46.97;;;17.95;;
65234;SDS011;51820;48.374;10.930;2024-01-11T05:04:57;52.80;;;17.60;;
65234;SDS011;51820;48.374;10.930;2024-01-11T05:07:26;52.85;;;17.90;;
65234;SDS011;51820;48.374;10.930;2024-01-11T05:09:55;48.50;;;16.20;;
65234;SDS011;51820;48.374;10.930;2024-01-11T05:12:23;46.67;;;17.33;;
65234;SDS011;51820;48.374;10.930;2024-01-11T05:14:52;46.55;;;16.05;;
65234;SDS011;51820;48.374;10.930;2024-01-11T05:17:21;48.05;;;15.93;;
65234;SDS011;51820;48.374;10.930;2024-01-11T05:19:50;48.90;;;16.40;;
65234;SDS011;51820;48.374;10.930;2024-01-11T05:22:18;43.83;;;13.97;;
65234;SDS011;51820;48.374;10.930;2024-01-11T05:24:48;49.45;;;18.67;;
65234;SDS011;51820;48.374;10.930;2024-01-11T05:27:16;52.20;;;17.30;;
65234;SDS011;51820;48.374;10.930;2024-01-11T05:29:45;50.75;;;18.60;;
65234;SDS011;51820;48.374;10.930;2024-01-11T05:32:13;56.25;;;17.73;;
65234;SDS011;51820;48.374;10.930;2024-01-11T05:34:43;56.70;;;18.40;;
65234;SDS011;51820;48.374;10.930;2024-01-11T05:37:11;48.92;;;17.02;;
65234;SDS011;51820;48.374;10.930;2024-01-11T05:39:40;56.80;;;17.90;;
65234;SDS011;51820;48.374;10.930;2024-01-11T05:42:08;49.35;;;15.73;;
65234;SDS011;51820;48.374;10.930;2024-01-11T05:44:37;43.40;;;15.68;;
65234;SDS011;51820;48.374;10.930;2024-01-11T05:47:05;53.60;;;17.57;;
65234;SDS011;51820;48.374;10.930;2024-01-11T05:49:34;52.10;;;17.92;;
65234;SDS011;51820;48.374;10.930;2024-01-11T05:52:04;54.60;;;18.30;;
65234;SDS011;51820;48.374;10.930;2024-01-11T05:54:32;52.10;;;18.42;;
65234;SDS011;51820;48.374;10.930;2024-01-11T05:57:03;50.28;;;18.30;;
65234;SDS011;51820;48.374;10.930;2024-01-11T05:59:32;52.20;;;16.90;;
65234;SDS011;51820;48.374;10.930;2024-01-11T06:02:00;61.83;;;18.85;;
65234;SDS011;51820;48.374;10.930;2024-01-11T06:04:29;51.33;;;17.60;;
65234;SDS011;51820;48.374;10.930;2024-01-11T06:06:57;53.95;;;17.70;;
65234;SDS011;51820;48.374;10.930;2024-01-11T06:09:27;45.65;;;15.52;;
65234;SDS011;51820;48.374;10.930;2024-01-11T06:11:55;53.20;;;17.30;;
65234;SDS011;51820;48.374;10.930;2024-01-11T06:14:24;50.45;;;17.70;;
65234;SDS011;51820;48.374;10.930;2024-01-11T06:16:52;55.55;;;19.40;;
65234;SDS011;51820;48.374;10.930;2024-01-11T06:19:21;48.03;;;17.20;;
65234;SDS011;51820;48.374;10.930;2024-01-11T06:21:49;58.22;;;19.73;;
65234;SDS011;51820;48.374;10.930;2024-01-11T06:24:18;53.63;;;18.60;;
65234;SDS011;51820;48.374;10.930;2024-01-11T06:26:47;61.15;;;19.45;;
65234;SDS011;51820;48.374;10.930;2024-01-11T06:29:16;57.03;;;19.08;;
65234;SDS011;51820;48.374;10.930;2024-01-11T06:31:44;64.97;;;19.88;;
65234;SDS011;51820;48.374;10.930;2024-01-11T06:34:13;60.80;;;19.65;;
65234;SDS011;51820;48.374;10.930;2024-01-11T06:36:41;61.23;;;19.90;;
65234;SDS011;51820;48.374;10.930;2024-01-11T06:39:10;56.47;;;19.25;;
65234;SDS011;51820;48.374;10.930;2024-01-11T06:41:39;56.83;;;19.05;;
65234;SDS011;51820;48.374;10.930;2024-01-11T06:44:09;65.15;;;20.42;;
65234;SDS011;51820;48.374;10.930;2024-01-11T06:46:37;63.88;;;21.33;;
65234;SDS011;51820;48.374;10.930;2024-01-11T06:49:08;61.33;;;19.43;;
65234;SDS011;51820;48.374;10.930;2024-01-11T06:51:36;64.43;;;21.42;;
65234;SDS011;51820;48.374;10.930;2024-01-11T06:54:06;59.75;;;21.00;;
65234;SDS011;51820;48.374;10.930;2024-01-11T06:56:34;58.42;;;20.58;;
65234;SDS011;51820;48.374;10.930;2024-01-11T06:59:03;60.33;;;20.67;;
65234;SDS011;51820;48.374;10.930;2024-01-11T07:01:35;66.17;;;20.57;;
65234;SDS011;51820;48.374;10.930;2024-01-11T07:04:03;69.78;;;19.80;;
65234;SDS011;51820;48.374;10.930;2024-01-11T07:06:32;62.92;;;19.17;;
65234;SDS011;51820;48.374;10.930;2024-01-11T07:09:00;69.38;;;21.02;;
65234;SDS011;51820;48.374;10.930;2024-01-11T07:11:29;60.17;;;19.13;;
65234;SDS011;51820;48.374;10.930;2024-01-11T07:13:58;61.33;;;21.07;;
65234;SDS011;51820;48.374;10.930;2024-01-11T07:16:27;60.78;;;19.42;;
65234;SDS011;51820;48.374;10.930;2024-01-11T07:18:57;62.15;;;20.73;;
65234;SDS011;51820;48.374;10.930;2024-01-11T07:21:26;67.38;;;20.63;;
65234;SDS011;51820;48.374;10.930;2024-01-11T07:23:58;65.68;;;20.30;;
65234;SDS011;51820;48.374;10.930;2024-01-11T07:26:26;68.40;;;22.27;;
65234;SDS011;51820;48.374;10.930;2024-01-11T07:28:55;78.28;;;27.52;;
65234;SDS011;51820;48.374;10.930;2024-01-11T07:31:24;83.28;;;26.23;;
65234;SDS011;51820;48.374;10.930;2024-01-11T07:33:53;75.65;;;24.70;;
65234;SDS011;51820;48.374;10.930;2024-01-11T07:36:25;68.75;;;22.67;;
65234;SDS011;51820;48.374;10.930;2024-01-11T07:38:53;69.47;;;21.73;;
65234;SDS011;51820;48.374;10.930;2024-01-11T07:41:22;63.03;;;21.10;;
65234;SDS011;51820;48.374;10.930;2024-01-11T07:43:51;69.28;;;21.55;;
65234;SDS011;51820;48.374;10.930;2024-01-11T07:46:20;61.28;;;19.33;;
65234;SDS011;51820;48.374;10.930;2024-01-11T07:49:01;58.38;;;19.48;;
65234;SDS011;51820;48.374;10.930;2024-01-11T07:51:33;74.93;;;22.70;;
65234;SDS011;51820;48.374;10.930;2024-01-11T07:54:02;61.08;;;19.88;;
65234;SDS011;51820;48.374;10.930;2024-01-11T07:56:31;63.03;;;19.23;;
65234;SDS011;51820;48.374;10.930;2024-01-11T07:58:59;92.85;;;30.90;;
65234;SDS011;51820;48.374;10.930;2024-01-11T08:01:28;75.70;;;25.17;;
65234;SDS011;51820;48.374;10.930;2024-01-11T08:03:56;89.80;;;28.47;;
65234;SDS011;51820;48.374;10.930;2024-01-11T08:06:25;68.25;;;21.35;;
65234;SDS011;51820;48.374;10.930;2024-01-11T08:08:55;73.72;;;21.92;;
65234;SDS011;51820;48.374;10.930;2024-01-11T08:11:24;63.85;;;20.42;;
65234;SDS011;51820;48.374;10.930;2024-01-11T08:13:57;57.38;;;19.55;;
65234;SDS011;51820;48.374;10.930;2024-01-11T08:16:30;61.13;;;20.13;;
65234;SDS011;51820;48.374;10.930;2024-01-11T08:18:59;67.60;;;20.02;;
65234;SDS011;51820;48.374;10.930;2024-01-11T08:21:31;61.80;;;21.77;;
65234;SDS011;51820;48.374;10.930;2024-01-11T08:24:01;69.43;;;19.92;;
65234;SDS011;51820;48.374;10.930;2024-01-11T08:26:30;63.65;;;21.30;;
65234;SDS011;51820;48.374;10.930;2024-01-11T08:28:59;71.57;;;21.00;;
65234;SDS011;51820;48.374;10.930;2024-01-11T08:31:28;67.93;;;20.13;;
65234;SDS011;51820;48.374;10.930;2024-01-11T08:33:57;69.97;;;21.65;;
65234;SDS011;51820;48.374;10.930;2024-01-11T08:36:30;61.20;;;20.08;;
65234;SDS011;51820;48.374;10.930;2024-01-11T08:39:02;68.50;;;20.88;;
65234;SDS011;51820;48.374;10.930;2024-01-11T08:41:32;58.77;;;19.17;;
65234;SDS011;51820;48.374;10.930;2024-01-11T08:44:01;67.63;;;20.65;;
65234;SDS011;51820;48.374;10.930;2024-01-11T08:46:32;57.17;;;18.92;;
65234;SDS011;51820;48.374;10.930;2024-01-11T08:49:01;53.53;;;18.70;;
65234;SDS011;51820;48.374;10.930;2024-01-11T08:51:30;70.40;;;20.20;;
65234;SDS011;51820;48.374;10.930;2024-01-11T08:53:59;61.03;;;19.60;;
65234;SDS011;51820;48.374;10.930;2024-01-11T08:56:29;61.58;;;19.88;;
65234;SDS011;51820;48.374;10.930;2024-01-11T08:58:57;70.63;;;21.27;;
65234;SDS011;51820;48.374;10.930;2024-01-11T09:01:26;62.67;;;20.83;;
65234;SDS011;51820;48.374;10.930;2024-01-11T09:03:54;52.92;;;19.70;;
65234;SDS011;51820;48.374;10.930;2024-01-11T09:06:24;60.07;;;19.70;;
65234;SDS011;51820;48.374;10.930;2024-01-11T09:08:53;65.05;;;20.95;;
65234;SDS011;51820;48.374;10.930;2024-01-11T09:11:21;57.53;;;19.65;;
65234;SDS011;51820;48.374;10.930;2024-01-11T09:13:51;62.83;;;19.50;;
65234;SDS011;51820;48.374;10.930;2024-01-11T09:16:20;70.18;;;21.10;;
65234;SDS011;51820;48.374;10.930;2024-01-11T09:18:49;64.20;;;19.57;;
65234;SDS011;51820;48.374;10.930;2024-01-11T09:21:27;50.08;;;17.25;;
65234;SDS011;51820;48.374;10.930;2024-01-11T09:24:14;55.65;;;18.85;;
65234;SDS011;51820;48.374;10.930;2024-01-11T09:26:43;54.38;;;17.77;;
65234;SDS011;51820;48.374;10.930;2024-01-11T09:29:13;52.83;;;17.63;;
65234;SDS011;51820;48.374;10.930;2024-01-11T09:31:41;57.77;;;18.90;;
65234;SDS011;51820;48.374;10.930;2024-01-11T09:34:10;57.28;;;18.88;;
65234;SDS011;51820;48.374;10.930;2024-01-11T09:36:39;48.45;;;17.58;;
65234;SDS011;51820;48.374;10.930;2024-01-11T09:39:07;59.15;;;19.02;;
65234;SDS011;51820;48.374;10.930;2024-01-11T09:41:36;51.80;;;18.10;;
65234;SDS011;51820;48.374;10.930;2024-01-11T09:44:05;57.33;;;18.47;;
65234;SDS011;51820;48.374;10.930;2024-01-11T09:46:35;65.43;;;20.13;;
65234;SDS011;51820;48.374;10.930;2024-01-11T09:49:05;60.08;;;18.90;;
65234;SDS011;51820;48.374;10.930;2024-01-11T09:51:35;58.22;;;19.25;;
65234;SDS011;51820;48.374;10.930;2024-01-11T09:54:07;63.33;;;19.08;;
65234;SDS011;51820;48.374;10.930;2024-01-11T09:56:37;59.83;;;19.03;;
65234;SDS011;51820;48.374;10.930;2024-01-11T09:59:06;63.40;;;19.52;;
65234;SDS011;51820;48.374;10.930;2024-01-11T10:01:41;58.25;;;19.38;;
65234;SDS011;51820;48.374;10.930;2024-01-11T10:04:09;58.20;;;19.67;;
65234;SDS011;51820;48.374;10.930;2024-01-11T10:06:38;55.42;;;19.52;;
65234;SDS011;51820;48.374;10.930;2024-01-11T10:09:07;56.90;;;18.30;;
65234;SDS011;51820;48.374;10.930;2024-01-11T10:11:36;68.35;;;20.17;;
65234;SDS011;51820;48.374;10.930;2024-01-11T10:14:04;56.05;;;19.02;;
65234;SDS011;51820;48.374;10.930;2024-01-11T10:16:34;60.50;;;19.42;;
65234;SDS011;51820;48.374;10.930;2024-01-11T10:19:04;65.07;;;20.85;;
65234;SDS011;51820;48.374;10.930;2024-01-11T10:21:32;66.90;;;20.47;;
65234;SDS011;51820;48.374;10.930;2024-01-11T10:24:01;65.30;;;20.50;;
65234;SDS011;51820;48.374;10.930;2024-01-11T10:26:33;59.50;;;19.52;;
65234;SDS011;51820;48.374;10.930;2024-01-11T10:29:03;62.55;;;21.23;;
65234;SDS011;51820;48.374;10.930;2024-01-11T10:31:39;68.13;;;19.60;;
65234;SDS011;51820;48.374;10.930;2024-01-11T10:34:09;60.50;;;19.73;;
65234;SDS011;51820;48.374;10.930;2024-01-11T10:36:37;57.17;;;17.63;;
65234;SDS011;51820;48.374;10.930;2024-01-11T10:39:08;62.45;;;20.77;;
65234;SDS011;51820;48.374;10.930;2024-01-11T10:41:39;58.58;;;19.25;;
65234;SDS011;51820;48.374;10.930;2024-01-11T10:44:10;60.53;;;19.98;;
65234;SDS011;51820;48.374;10.930;2024-01-11T10:46:48;54.50;;;18.13;;
65234;SDS011;51820;48.374;10.930;2024-01-11T10:49:18;62.67;;;19.30;;
65234;SDS011;51820;48.374;10.930;2024-01-11T10:51:49;58.17;;;18.52;;
65234;SDS011;51820;48.374;10.930;2024-01-11T10:54:20;53.75;;;18.90;;
65234;SDS011;51820;48.374;10.930;2024-01-11T10:56:50;55.35;;;19.33;;
65234;SDS011;51820;48.374;10.930;2024-01-11T10:59:19;54.97;;;19.40;;
65234;SDS011;51820;48.374;10.930;2024-01-11T11:01:51;75.22;;;20.13;;
65234;SDS011;51820;48.374;10.930;2024-01-11T11:04:24;61.15;;;20.17;;
65234;SDS011;51820;48.374;10.930;2024-01-11T11:06:54;70.22;;;21.63;;
65234;SDS011;51820;48.374;10.930;2024-01-11T11:09:24;61.08;;;20.00;;
65234;SDS011;51820;48.374;10.930;2024-01-11T11:11:54;66.87;;;21.13;;
65234;SDS011;51820;48.374;10.930;2024-01-11T11:14:25;60.15;;;20.40;;
65234;SDS011;51820;48.374;10.930;2024-01-11T11:16:56;61.28;;;19.90;;
65234;SDS011;51820;48.374;10.930;2024-01-11T11:19:26;65.75;;;21.45;;
65234;SDS011;51820;48.374;10.930;2024-01-11T11:21:55;66.90;;;21.45;;
65234;SDS011;51820;48.374;10.930;2024-01-11T11:24:43;59.90;;;20.27;;
65234;SDS011;51820;48.374;10.930;2024-01-11T11:27:13;64.15;;;19.60;;
65234;SDS011;51820;48.374;10.930;2024-01-11T11:29:42;49.30;;;18.73;;
65234;SDS011;51820;48.374;10.930;2024-01-11T11:32:14;68.47;;;20.90;;
65234;SDS011;51820;48.374;10.930;2024-01-11T11:34:45;63.92;;;21.17;;
65234;SDS011;51820;48.374;10.930;2024-01-11T11:37:22;61.20;;;20.03;;
65234;SDS011;51820;48.374;10.930;2024-01-11T11:39:53;55.42;;;19.77;;
65234;SDS011;51820;48.374;10.930;2024-01-11T11:42:24;54.70;;;20.35;;
65234;SDS011;51820;48.374;10.930;2024-01-11T11:44:52;55.85;;;19.92;;
65234;SDS011;51820;48.374;10.930;2024-01-11T11:47:22;59.50;;;20.80;;
65234;SDS011;51820;48.374;10.930;2024-01-11T11:49:59;63.30;;;20.60;;
65234;SDS011;51820;48.374;10.930;2024-01-11T11:52:32;62.03;;;20.75;;
65234;SDS011;51820;48.374;10.930;2024-01-11T11:55:02;62.92;;;20.77;;
65234;SDS011;51820;48.374;10.930;2024-01-11T11:57:31;66.38;;;21.90;;
65234;SDS011;51820;48.374;10.930;2024-01-11T11:59:59;57.67;;;20.63;;
65234;SDS011;51820;48.374;10.930;2024-01-11T12:02:36;68.93;;;20.80;;
65234;SDS011;51820;48.374;10.930;2024-01-11T12:05:10;60.03;;;21.15;;
65234;SDS011;51820;48.374;10.930;2024-01-11T12:07:39;77.55;;;22.02;;
65234;SDS011;51820;48.374;10.930;2024-01-11T12:10:07;58.50;;;21.10;;
65234;SDS011;51820;48.374;10.930;2024-01-11T12:12:36;70.03;;;22.98;;
65234;SDS011;51820;48.374;10.930;2024-01-11T12:15:05;63.93;;;20.03;;
65234;SDS011;51820;48.374;10.930;2024-01-11T12:17:35;66.22;;;20.77;;
65234;SDS011;51820;48.374;10.930;2024-01-11T12:20:05;65.00;;;22.13;;
65234;SDS011;51820;48.374;10.930;2024-01-11T12:22:35;59.72;;;23.33;;
65234;SDS011;51820;48.374;10.930;2024-01-11T12:25:04;55.55;;;22.05;;
65234;SDS011;51820;48.374;10.930;2024-01-11T12:27:34;57.03;;;21.43;;
65234;SDS011;51820;48.374;10.930;2024-01-11T12:30:02;64.63;;;22.05;;
65234;SDS011;51820;48.374;10.930;2024-01-11T12:32:31;57.45;;;23.02;;
65234;SDS011;51820;48.374;10.930;2024-01-11T12:35:01;56.30;;;21.55;;
65234;SDS011;51820;48.374;10.930;2024-01-11T12:37:30;56.85;;;21.10;;
65234;SDS011;51820;48.374;10.930;2024-01-11T12:39:59;66.50;;;20.93;;
65234;SDS011;51820;48.374;10.930;2024-01-11T12:42:28;65.00;;;22.88;;
65234;SDS011;51820;48.374;10.930;2024-01-11T12:44:56;61.40;;;22.98;;
65234;SDS011;51820;48.374;10.930;2024-01-11T12:47:25;63.55;;;23.33;;
65234;SDS011;51820;48.374;10.930;2024-01-11T12:49:54;61.28;;;22.27;;
65234;SDS011;51820;48.374;10.930;2024-01-11T12:52:22;57.53;;;22.13;;
65234;SDS011;51820;48.374;10.930;2024-01-11T12:54:54;62.13;;;22.27;;
65234;SDS011;51820;48.374;10.930;2024-01-11T12:57:25;62.83;;;23.25;;
65234;SDS011;51820;48.374;10.930;2024-01-11T12:59:56;61.90;;;21.73;;
65234;SDS011;51820;48.374;10.930;2024-01-11T13:02:37;57.38;;;22.00;;
65234;SDS011;51820;48.374;10.930;2024-01-11T13:05:06;61.10;;;22.30;;
65234;SDS011;51820;48.374;10.930;2024-01-11T13:07:36;67.25;;;23.30;;
65234;SDS011;51820;48.374;10.930;2024-01-11T13:10:05;62.10;;;23.20;;
65234;SDS011;51820;48.374;10.930;2024-01-11T13:12:35;66.50;;;23.48;;
65234;SDS011;51820;48.374;10.930;2024-01-11T13:15:03;54.58;;;23.08;;
65234;SDS011;51820;48.374;10.930;2024-01-11T13:17:32;68.57;;;23.00;;
65234;SDS011;51820;48.374;10.930;2024-01-11T13:20:01;63.10;;;22.35;;
65234;SDS011;51820;48.374;10.930;2024-01-11T13:22:30;68.40;;;24.88;;
65234;SDS011;51820;48.374;10.930;2024-01-11T13:25:05;64.75;;;22.98;;
65234;SDS011;51820;48.374;10.930;2024-01-11T13:27:43;71.00;;;25.23;;
65234;SDS011;51820;48.374;10.930;2024-01-11T13:30:11;68.37;;;23.03;;
65234;SDS011;51820;48.374;10.930;2024-01-11T13:32:46;72.05;;;22.13;;
65234;SDS011;51820;48.374;10.930;2024-01-11T13:35:17;67.85;;;23.10;;
65234;SDS011;51820;48.374;10.930;2024-01-11T13:37:46;63.67;;;23.08;;
65234;SDS011;51820;48.374;10.930;2024-01-11T13:40:15;64.35;;;22.63;;
65234;SDS011;51820;48.374;10.930;2024-01-11T13:42:45;65.53;;;23.90;;
65234;SDS011;51820;48.374;10.930;2024-01-11T13:45:13;65.68;;;23.77;;
65234;SDS011;51820;48.374;10.930;2024-01-11T13:47:42;64.60;;;25.92;;
65234;SDS011;51820;48.374;10.930;2024-01-11T13:50:11;63.00;;;26.13;;
65234;SDS011;51820;48.374;10.930;2024-01-11T13:52:39;61.13;;;25.52;;
65234;SDS011;51820;48.374;10.930;2024-01-11T13:55:08;52.30;;;22.57;;
65234;SDS011;51820;48.374;10.930;2024-01-11T13:57:37;116.90;;;44.08;;
65234;SDS011;51820;48.374;10.930;2024-01-11T14:00:09;109.70;;;40.40;;
65234;SDS011;51820;48.374;10.930;2024-01-11T14:02:38;66.95;;;24.88;;
65234;SDS011;51820;48.374;10.930;2024-01-11T14:05:08;64.70;;;24.60;;
65234;SDS011;51820;48.374;10.930;2024-01-11T14:07:38;67.37;;;24.00;;
65234;SDS011;51820;48.374;10.930;2024-01-11T14:10:07;57.50;;;23.27;;
65234;SDS011;51820;48.374;10.930;2024-01-11T14:12:36;58.42;;;22.98;;
65234;SDS011;51820;48.374;10.930;2024-01-11T14:15:05;65.35;;;25.17;;
65234;SDS011;51820;48.374;10.930;2024-01-11T14:17:38;67.35;;;24.30;;
65234;SDS011;51820;48.374;10.930;2024-01-11T14:20:13;62.50;;;21.23;;
65234;SDS011;51820;48.374;10.930;2024-01-11T14:22:46;61.35;;;24.45;;